createdAt,value
2023-05-21T00:00:35.393Z,97.90
2023-05-21T00:03:13.799Z,97.90
2023-05-21T00:05:50.174Z,98.00
2023-05-21T00:08:23.914Z,98.00
2023-05-21T00:10:57.428Z,98.30
2023-05-21T00:13:30.729Z,98.40
2023-05-21T00:16:04.190Z,98.40
2023-05-21T00:18:39.222Z,98.10
2023-05-21T00:21:14.060Z,98.20
2023-05-21T00:23:48.140Z,98.00
2023-05-21T00:26:21.695Z,98.40
2023-05-21T00:28:54.997Z,98.50
2023-05-21T00:31:28.380Z,98.50
2023-05-21T00:34:01.637Z,98.20
2023-05-21T00:36:35.023Z,98.70
2023-05-21T00:39:08.851Z,98.40
2023-05-21T00:41:43.087Z,98.50
2023-05-21T00:44:18.387Z,98.80
2023-05-21T00:46:53.609Z,98.60
2023-05-21T00:49:27.314Z,98.70
2023-05-21T00:52:02.419Z,98.70
2023-05-21T00:54:36.220Z,98.70
2023-05-21T00:57:10.654Z,98.70
2023-05-21T00:59:44.488Z,98.90
2023-05-21T01:02:18.827Z,98.70
2023-05-21T01:04:52.285Z,98.90
2023-05-21T01:07:25.588Z,99.10
2023-05-21T01:09:59.082Z,99.30
2023-05-21T01:12:34.041Z,99.20
2023-05-21T01:15:10.707Z,99.40
2023-05-21T01:17:45.853Z,99.70
2023-05-21T01:20:21.266Z,99.70
2023-05-21T01:22:58.285Z,99.90
2023-05-21T01:25:31.901Z,99.60
2023-05-21T01:28:05.171Z,99.70
2023-05-21T01:30:40.408Z,99.80
2023-05-21T01:33:27.044Z,99.70
2023-05-21T01:36:15.824Z,99.90
2023-05-21T01:38:58.830Z,99.90
2023-05-21T01:41:39.429Z,99.90
2023-05-21T01:44:18.374Z,99.90
2023-05-21T01:46:52.543Z,99.90
2023-05-21T01:49:26.841Z,99.90
2023-05-21T01:52:02.504Z,99.90
2023-05-21T01:54:35.787Z,99.90
2023-05-21T01:57:09.134Z,99.90
2023-05-21T01:59:44.238Z,99.90
2023-05-21T02:02:17.862Z,99.90
2023-05-21T02:04:51.567Z,99.90
2023-05-21T02:07:24.797Z,99.90
2023-05-21T02:09:57.771Z,99.90
2023-05-21T02:12:31.086Z,99.90
2023-05-21T02:15:04.842Z,99.90
2023-05-21T02:17:38.831Z,99.90
2023-05-21T02:20:15.549Z,99.90
2023-05-21T02:22:50.803Z,99.90
2023-05-21T02:25:24.327Z,99.90
2023-05-21T02:27:57.606Z,99.90
2023-05-21T02:30:30.935Z,99.90
2023-05-21T02:33:04.287Z,99.90
2023-05-21T02:35:38.136Z,99.90
2023-05-21T02:38:13.568Z,99.90
2023-05-21T02:40:46.974Z,99.90
2023-05-21T02:43:20.198Z,99.90
2023-05-21T02:45:53.524Z,99.90
2023-05-21T02:48:26.801Z,99.90
2023-05-21T02:51:01.702Z,99.90
2023-05-21T02:53:35.071Z,99.90
2023-05-21T02:56:09.130Z,99.90
2023-05-21T02:58:42.684Z,99.90
2023-05-21T03:01:16.862Z,99.90
2023-05-21T03:03:50.528Z,99.90
2023-05-21T03:06:24.620Z,99.90
2023-05-21T03:08:57.965Z,99.90
2023-05-21T03:11:31.292Z,99.90
2023-05-21T03:14:04.529Z,99.90
2023-05-21T03:16:38.108Z,99.90
2023-05-21T03:19:12.263Z,99.90
2023-05-21T03:21:45.856Z,99.90
2023-05-21T03:24:19.246Z,99.90
2023-05-21T03:26:52.564Z,99.90
2023-05-21T03:29:25.804Z,99.90
2023-05-21T03:31:59.358Z,99.90
2023-05-21T03:34:34.478Z,99.90
2023-05-21T03:37:07.887Z,99.90
2023-05-21T03:39:41.250Z,99.90
2023-05-21T03:42:14.680Z,99.90
2023-05-21T03:44:47.937Z,99.90
2023-05-21T03:47:21.404Z,99.90
2023-05-21T03:49:54.764Z,99.90
2023-05-21T03:52:28.225Z,99.90
2023-05-21T03:55:01.690Z,99.90
2023-05-21T03:57:34.926Z,99.90
2023-05-21T04:00:10.826Z,99.90
2023-05-21T04:02:44.489Z,99.90
2023-05-21T04:05:18.104Z,99.90
2023-05-21T04:07:51.495Z,99.90
2023-05-21T04:10:24.847Z,99.90
2023-05-21T04:12:58.180Z,99.90
2023-05-21T04:15:31.462Z,99.90
2023-05-21T04:18:04.802Z,99.90
2023-05-21T04:20:38.361Z,99.90
2023-05-21T04:23:11.841Z,99.90
2023-05-21T04:25:45.223Z,99.90
2023-05-21T04:28:19.953Z,99.90
2023-05-21T04:30:53.291Z,99.90
2023-05-21T04:33:26.977Z,99.90
2023-05-21T04:36:00.748Z,99.90
2023-05-21T04:38:34.153Z,99.90
2023-05-21T04:41:10.782Z,99.90
2023-05-21T04:43:44.941Z,99.90
2023-05-21T04:46:18.447Z,99.90
2023-05-21T04:48:52.652Z,99.90
2023-05-21T04:51:27.215Z,99.90
2023-05-21T04:54:00.584Z,99.90
2023-05-21T04:56:33.888Z,99.90
2023-05-21T04:59:07.282Z,99.90
2023-05-21T05:01:41.152Z,99.90
2023-05-21T05:04:14.428Z,99.90
2023-05-21T05:06:47.726Z,99.90
2023-05-21T05:09:24.984Z,99.90
2023-05-21T05:11:58.548Z,99.90
2023-05-21T05:14:31.577Z,99.90
2023-05-21T05:17:04.945Z,99.90
2023-05-21T05:19:38.378Z,99.90
2023-05-21T05:22:13.606Z,99.90
2023-05-21T05:24:47.263Z,99.90
2023-05-21T05:27:20.519Z,99.90
2023-05-21T05:29:53.530Z,99.90
2023-05-21T05:32:26.965Z,99.90
2023-05-21T05:35:02.241Z,99.90
2023-05-21T05:37:36.181Z,99.90
2023-05-21T05:40:11.687Z,99.90
2023-05-21T05:42:44.948Z,99.90
2023-05-21T05:45:18.478Z,99.90
2023-05-21T05:47:51.851Z,99.90
2023-05-21T05:50:25.285Z,99.90
2023-05-21T05:52:59.110Z,99.90
2023-05-21T05:55:32.348Z,99.90
2023-05-21T05:58:05.605Z,99.90
2023-05-21T06:00:38.824Z,99.90
2023-05-21T06:03:12.544Z,99.90
2023-05-21T06:05:46.154Z,99.90
2023-05-21T06:08:19.771Z,99.90
2023-05-21T06:10:53.018Z,99.90
2023-05-21T06:13:26.349Z,99.90
2023-05-21T06:15:59.437Z,99.90
2023-05-21T06:18:33.134Z,99.90
2023-05-21T06:21:06.614Z,99.90
2023-05-21T06:23:39.869Z,99.90
2023-05-21T06:26:13.156Z,99.90
2023-05-21T06:28:46.383Z,99.90
2023-05-21T06:31:22.313Z,99.90
2023-05-21T06:33:56.164Z,99.90
2023-05-21T06:36:32.360Z,99.90
2023-05-21T06:39:07.063Z,99.90
2023-05-21T06:41:40.645Z,99.90
2023-05-21T06:44:15.633Z,99.90
2023-05-21T06:46:48.878Z,99.90
2023-05-21T06:49:22.169Z,99.90
2023-05-21T06:51:55.460Z,99.90
2023-05-21T06:54:28.823Z,99.90
2023-05-21T06:57:02.476Z,99.90
2023-05-21T06:59:35.968Z,99.90
2023-05-21T07:02:09.617Z,99.90
2023-05-21T07:04:43.199Z,99.90
2023-05-21T07:07:16.570Z,99.90
2023-05-21T07:09:49.956Z,99.90
2023-05-21T07:12:23.299Z,99.90
2023-05-21T07:14:58.753Z,99.90
2023-05-21T07:17:33.017Z,99.90
2023-05-21T07:20:07.700Z,99.90
2023-05-21T07:22:43.044Z,99.90
2023-05-21T07:25:16.660Z,99.90
2023-05-21T07:27:50.024Z,99.90
2023-05-21T07:30:23.496Z,99.90
2023-05-21T07:32:56.509Z,99.90
2023-05-21T07:35:30.046Z,99.90
2023-05-21T07:38:03.853Z,99.90
2023-05-21T07:40:37.250Z,99.90
2023-05-21T07:43:10.831Z,99.90
2023-05-21T07:45:44.476Z,99.90
2023-05-21T07:48:17.435Z,99.90
2023-05-21T07:50:52.494Z,99.90
2023-05-21T07:53:26.051Z,99.90
2023-05-21T07:56:00.533Z,99.90
2023-05-21T07:58:35.193Z,99.90
2023-05-21T08:01:08.899Z,99.90
2023-05-21T08:03:42.066Z,99.90
2023-05-21T08:06:15.681Z,99.90
2023-05-21T08:08:48.996Z,99.90
2023-05-21T08:11:23.333Z,99.80
2023-05-21T08:13:56.775Z,99.70
2023-05-21T08:16:30.198Z,99.60
2023-05-21T08:19:03.632Z,99.40
2023-05-21T08:21:37.322Z,99.10
2023-05-21T08:24:10.635Z,99.40
2023-05-21T08:26:44.666Z,99.20
2023-05-21T08:29:18.267Z,99.30
2023-05-21T08:31:51.633Z,99.10
2023-05-21T08:34:24.720Z,99.10
2023-05-21T08:36:58.019Z,98.20
2023-05-21T08:39:31.300Z,98.60
2023-05-21T08:42:35.217Z,98.40
2023-05-21T08:45:12.576Z,98.30
2023-05-21T08:47:47.717Z,98.30
2023-05-21T08:50:22.825Z,98.20
2023-05-21T08:52:58.892Z,98.00
2023-05-21T08:55:34.987Z,98.00
2023-05-21T08:58:09.778Z,97.90
2023-05-21T09:00:43.512Z,98.00
2023-05-21T09:03:17.518Z,97.50
2023-05-21T09:05:52.730Z,97.40
2023-05-21T09:08:36.378Z,97.60
2023-05-21T09:11:10.094Z,97.70
2023-05-21T09:13:46.389Z,97.30
2023-05-21T09:16:20.515Z,97.20
2023-05-21T09:18:54.344Z,96.90
2023-05-21T09:21:33.226Z,97.30
2023-05-21T09:24:07.607Z,97.30
2023-05-21T09:26:43.328Z,96.70
2023-05-21T09:29:18.261Z,96.70
2023-05-21T09:31:54.810Z,96.70
2023-05-21T09:34:30.909Z,96.40
2023-05-21T09:37:06.545Z,96.20
2023-05-21T09:39:48.094Z,96.10
2023-05-21T09:42:23.651Z,96.20
2023-05-21T09:44:59.071Z,95.90
2023-05-21T09:47:32.654Z,95.20
2023-05-21T09:50:06.178Z,95.20
2023-05-21T09:52:42.336Z,95.30
2023-05-21T09:55:22.961Z,95.10
2023-05-21T09:57:58.951Z,95.30
2023-05-21T10:00:34.917Z,95.00
2023-05-21T10:03:16.965Z,94.90
2023-05-21T10:05:53.223Z,94.40
2023-05-21T10:08:31.800Z,94.70
2023-05-21T10:11:06.650Z,94.70
2023-05-21T10:13:50.105Z,94.70
2023-05-21T10:16:24.004Z,94.50
2023-05-21T10:18:58.814Z,94.20
2023-05-21T10:21:34.765Z,93.80
2023-05-21T10:24:09.508Z,93.30
2023-05-21T10:26:45.713Z,93.50
2023-05-21T10:29:23.826Z,93.90
2023-05-21T10:31:58.413Z,94.30
2023-05-21T10:34:34.141Z,93.50
2023-05-21T10:37:10.757Z,93.20
2023-05-21T10:39:45.825Z,92.80
2023-05-21T10:42:48.528Z,93.30
2023-05-21T10:45:32.799Z,92.80
2023-05-21T10:48:28.960Z,92.10
2023-05-21T10:51:26.403Z,92.20
2023-05-21T10:54:39.802Z,91.80
2023-05-21T10:57:35.896Z,91.30
2023-05-21T11:00:13.278Z,91.90
2023-05-21T11:02:49.350Z,90.90
2023-05-21T11:05:52.504Z,90.80
2023-05-21T11:08:31.534Z,90.60
2023-05-21T11:11:06.076Z,90.20
2023-05-21T11:13:51.910Z,89.70
2023-05-21T11:16:31.155Z,88.60
2023-05-21T11:19:08.011Z,89.50
2023-05-21T11:21:43.170Z,90.10
2023-05-21T11:24:25.535Z,90.20
2023-05-21T11:27:08.722Z,88.00
2023-05-21T11:29:56.521Z,87.70
2023-05-21T11:32:30.116Z,86.90
2023-05-21T11:35:05.567Z,87.00
2023-05-21T11:37:41.527Z,86.20
2023-05-21T11:40:30.173Z,86.50
2023-05-21T11:43:03.911Z,86.10
2023-05-21T11:45:38.025Z,84.80
2023-05-21T11:48:16.248Z,84.70
2023-05-21T11:50:51.528Z,84.70
2023-05-21T11:53:24.952Z,85.40
2023-05-21T11:55:59.675Z,83.30
2023-05-21T11:58:36.234Z,82.60
2023-05-21T12:01:09.269Z,82.80
2023-05-21T12:03:42.865Z,82.30
2023-05-21T12:06:17.377Z,81.90
2023-05-21T12:08:58.341Z,82.30
2023-05-21T12:11:32.049Z,79.50
2023-05-21T12:14:07.688Z,79.80
2023-05-21T12:16:42.662Z,79.10
2023-05-21T12:19:18.091Z,78.60
2023-05-21T12:21:51.448Z,78.40
2023-05-21T12:24:25.381Z,75.50
2023-05-21T12:27:01.364Z,76.20
2023-05-21T12:29:37.016Z,75.90
2023-05-21T12:32:13.497Z,76.20
2023-05-21T12:34:49.709Z,75.80
2023-05-21T12:37:31.215Z,77.70
2023-05-21T12:40:07.744Z,77.50
2023-05-21T12:42:42.589Z,76.40
2023-05-21T12:45:18.777Z,74.90
2023-05-21T12:47:56.684Z,75.10
2023-05-21T12:50:30.296Z,75.10
2023-05-21T12:53:03.822Z,74.80
2023-05-21T12:55:38.721Z,73.90
2023-05-21T12:58:17.099Z,73.90
2023-05-21T13:00:50.481Z,73.10
2023-05-21T13:03:27.226Z,74.70
2023-05-21T13:06:06.863Z,73.70
2023-05-21T13:08:40.741Z,72.70
2023-05-21T13:11:14.098Z,72.70
2023-05-21T13:13:47.342Z,72.90
2023-05-21T13:16:22.082Z,72.70
2023-05-21T13:18:55.274Z,72.90
2023-05-21T13:21:28.649Z,73.50
2023-05-21T13:24:02.027Z,74.50
2023-05-21T13:26:35.468Z,73.40
2023-05-21T13:29:09.822Z,72.40
2023-05-21T13:31:44.108Z,72.70
2023-05-21T13:34:17.186Z,70.90
2023-05-21T13:36:51.039Z,71.40
2023-05-21T13:39:27.550Z,70.90
2023-05-21T13:42:01.546Z,71.80
2023-05-21T13:44:36.546Z,70.50
2023-05-21T13:47:12.068Z,71.60
2023-05-21T13:49:45.338Z,70.90
2023-05-21T13:52:18.634Z,69.70
2023-05-21T13:54:52.014Z,70.00
2023-05-21T13:57:26.767Z,69.70
2023-05-21T14:00:00.814Z,69.90
2023-05-21T14:02:34.621Z,69.30
2023-05-21T14:05:07.808Z,69.10
2023-05-21T14:07:41.810Z,69.90
2023-05-21T14:10:15.749Z,69.70
2023-05-21T14:12:49.164Z,70.60
2023-05-21T14:15:22.527Z,69.30
2023-05-21T14:17:56.042Z,70.00
2023-05-21T14:20:29.157Z,68.80
2023-05-21T14:23:02.473Z,70.10
2023-05-21T14:25:36.074Z,70.20
2023-05-21T14:28:10.609Z,70.40
2023-05-21T14:30:43.936Z,69.10
2023-05-21T14:33:17.432Z,69.20
2023-05-21T14:35:50.434Z,69.00
2023-05-21T14:38:23.782Z,70.10
2023-05-21T14:40:58.557Z,68.60
2023-05-21T14:43:32.134Z,69.20
2023-05-21T14:46:05.580Z,69.50
2023-05-21T14:48:39.254Z,69.20
2023-05-21T14:51:13.619Z,69.50
2023-05-21T14:53:46.916Z,69.10
2023-05-21T14:56:21.854Z,67.90
2023-05-21T14:58:55.205Z,69.00
2023-05-21T15:01:28.893Z,69.20
2023-05-21T15:04:03.485Z,68.70
2023-05-21T15:06:36.786Z,68.70
2023-05-21T15:09:10.062Z,67.80
2023-05-21T15:11:44.564Z,67.70
2023-05-21T15:14:18.116Z,69.50
2023-05-21T15:16:51.492Z,67.40
2023-05-21T15:19:25.406Z,68.00
2023-05-21T15:21:58.973Z,68.00
2023-05-21T15:24:32.283Z,65.90
2023-05-21T15:27:05.680Z,65.50
2023-05-21T15:29:39.329Z,68.60
2023-05-21T15:32:13.065Z,66.90
2023-05-21T15:34:46.558Z,67.20
2023-05-21T15:37:20.082Z,65.60
2023-05-21T15:39:54.033Z,66.00
2023-05-21T15:42:31.085Z,64.70
2023-05-21T15:45:04.661Z,65.20
2023-05-21T15:47:42.717Z,64.20
2023-05-21T15:50:17.356Z,63.60
2023-05-21T15:52:52.371Z,63.20
2023-05-21T15:55:26.916Z,62.90
2023-05-21T15:58:02.219Z,63.00
2023-05-21T16:00:37.755Z,64.20
2023-05-21T16:03:11.900Z,63.40
2023-05-21T16:05:45.540Z,65.30
2023-05-21T16:08:18.580Z,66.00
2023-05-21T16:10:51.911Z,66.80
2023-05-21T16:13:25.222Z,67.20
2023-05-21T16:15:58.589Z,66.80
2023-05-21T16:18:31.974Z,66.40
2023-05-21T16:21:05.419Z,66.90
2023-05-21T16:23:38.860Z,67.50
2023-05-21T16:26:13.965Z,68.30
2023-05-21T16:28:47.300Z,68.80
2023-05-21T16:31:20.663Z,68.50
2023-05-21T16:33:54.026Z,68.70
2023-05-21T16:36:27.476Z,68.60
2023-05-21T16:39:00.659Z,68.00
2023-05-21T16:41:34.619Z,68.30
2023-05-21T16:44:07.882Z,68.30
2023-05-21T16:46:41.264Z,67.80
2023-05-21T16:49:14.886Z,67.00
2023-05-21T16:51:48.287Z,67.00
2023-05-21T16:54:21.703Z,66.50
2023-05-21T16:56:55.254Z,66.30
2023-05-21T16:59:28.561Z,65.30
2023-05-21T17:02:02.318Z,66.70
2023-05-21T17:04:36.092Z,65.40
2023-05-21T17:07:10.769Z,66.50
2023-05-21T17:09:43.756Z,66.30
2023-05-21T17:12:17.054Z,66.90
2023-05-21T17:14:50.362Z,67.50
2023-05-21T17:17:23.811Z,67.30
2023-05-21T17:19:57.541Z,66.70
2023-05-21T17:22:30.938Z,66.00
2023-05-21T17:25:04.213Z,65.50
2023-05-21T17:27:37.843Z,65.60
2023-05-21T17:30:14.642Z,67.00
2023-05-21T17:32:47.970Z,65.10
2023-05-21T17:35:21.707Z,64.70
2023-05-21T17:37:55.236Z,64.30
2023-05-21T17:40:28.199Z,64.20
2023-05-21T17:43:01.464Z,67.00
2023-05-21T17:45:35.170Z,66.70
2023-05-21T17:48:09.910Z,66.30
2023-05-21T17:50:43.334Z,65.30
2023-05-21T17:53:17.655Z,66.40
2023-05-21T17:55:50.923Z,66.60
2023-05-21T17:58:24.328Z,67.30
2023-05-21T18:00:57.625Z,65.90
2023-05-21T18:03:31.211Z,67.90
2023-05-21T18:06:05.038Z,68.90
2023-05-21T18:08:38.489Z,68.50
2023-05-21T18:11:11.509Z,71.40
2023-05-21T18:13:44.803Z,71.70
2023-05-21T18:16:18.196Z,71.30
2023-05-21T18:18:51.836Z,68.80
2023-05-21T18:21:26.145Z,70.50
2023-05-21T18:23:59.518Z,69.90
2023-05-21T18:26:32.515Z,70.90
2023-05-21T18:29:05.850Z,70.70
2023-05-21T18:31:39.217Z,70.80
2023-05-21T18:34:12.975Z,70.50
2023-05-21T18:36:46.649Z,70.70
2023-05-21T18:39:24.447Z,71.00
2023-05-21T18:44:33.852Z,71.70
2023-05-21T18:47:07.559Z,71.60
2023-05-21T18:49:41.201Z,73.20
2023-05-21T18:52:14.616Z,72.00
2023-05-21T18:54:47.994Z,72.10
2023-05-21T18:57:21.064Z,73.00
2023-05-21T18:59:54.409Z,71.70
2023-05-21T19:02:29.680Z,72.80
2023-05-21T19:05:03.146Z,72.80
2023-05-21T19:07:37.140Z,72.40
2023-05-21T19:10:14.124Z,72.90
2023-05-21T19:12:47.700Z,73.40
2023-05-21T19:15:22.147Z,73.60
2023-05-21T19:17:55.628Z,74.20
2023-05-21T19:20:30.388Z,74.30
2023-05-21T19:23:04.367Z,74.40
2023-05-21T19:25:38.292Z,75.00
2023-05-21T19:28:12.049Z,75.10
2023-05-21T19:30:45.407Z,75.30
2023-05-21T19:33:18.847Z,75.60
2023-05-21T19:35:52.812Z,75.50
2023-05-21T19:38:26.359Z,75.70
2023-05-21T19:40:59.633Z,76.60
2023-05-21T19:43:32.658Z,77.00
2023-05-21T19:46:06.402Z,78.70
2023-05-21T19:48:40.101Z,77.50
2023-05-21T19:51:14.287Z,78.20
2023-05-21T19:53:47.562Z,78.30
2023-05-21T19:56:21.840Z,78.60
2023-05-21T19:58:54.843Z,77.90
2023-05-21T20:01:28.986Z,78.10
2023-05-21T20:04:02.516Z,79.40
2023-05-21T20:06:36.271Z,79.00
2023-05-21T20:09:10.801Z,79.20
2023-05-21T20:11:44.775Z,78.60
2023-05-21T20:14:18.540Z,77.70
2023-05-21T20:16:53.547Z,78.40
2023-05-21T20:19:26.941Z,78.40
2023-05-21T20:22:00.725Z,77.70
2023-05-21T20:24:34.125Z,77.00
2023-05-21T20:27:07.418Z,77.40
2023-05-21T20:29:42.817Z,78.50
2023-05-21T20:32:16.195Z,77.40
2023-05-21T20:35:02.334Z,76.70
2023-05-21T20:37:37.196Z,77.30
2023-05-21T20:40:14.859Z,76.60
2023-05-21T20:42:50.241Z,76.80
2023-05-21T20:45:23.500Z,77.90
2023-05-21T20:47:56.891Z,77.10
2023-05-21T20:50:30.215Z,77.40
2023-05-21T20:53:03.594Z,77.10
2023-05-21T20:55:37.096Z,77.20
2023-05-21T20:58:10.657Z,77.20
2023-05-21T21:00:44.880Z,77.50
2023-05-21T21:03:18.802Z,78.10
2023-05-21T21:05:52.902Z,78.50
2023-05-21T21:08:26.513Z,78.50
2023-05-21T21:10:59.957Z,78.10
2023-05-21T21:13:33.309Z,78.40
2023-05-21T21:16:06.853Z,78.20
2023-05-21T21:18:40.404Z,78.80
2023-05-21T21:21:13.701Z,77.90
2023-05-21T21:23:47.098Z,78.40
2023-05-21T21:26:22.004Z,78.30
2023-05-21T21:28:56.353Z,78.10
2023-05-21T21:31:29.991Z,78.20
2023-05-21T21:34:03.481Z,78.70
2023-05-21T21:36:44.246Z,78.40
2023-05-21T21:39:17.964Z,78.80
2023-05-21T21:41:51.236Z,78.70
2023-05-21T21:44:24.530Z,79.30
2023-05-21T21:46:57.764Z,79.50
2023-05-21T21:49:31.182Z,79.20
2023-05-21T21:52:04.743Z,79.50
2023-05-21T21:54:37.999Z,80.10
2023-05-21T21:57:11.271Z,80.90
2023-05-21T21:59:44.574Z,80.50
2023-05-21T22:02:18.263Z,80.30
2023-05-21T22:04:51.988Z,80.30
2023-05-21T22:07:25.660Z,80.70
2023-05-21T22:09:58.901Z,81.50
2023-05-21T22:12:33.671Z,81.80
2023-05-21T22:15:07.938Z,82.10
2023-05-21T22:17:41.125Z,82.10
2023-05-21T22:20:17.479Z,81.60
2023-05-21T22:22:52.383Z,82.40
2023-05-21T22:25:27.264Z,82.10
2023-05-21T22:28:00.647Z,82.20
2023-05-21T22:30:33.955Z,82.90
2023-05-21T22:33:07.229Z,83.00
2023-05-21T22:35:40.788Z,82.80
2023-05-21T22:38:14.115Z,83.30
2023-05-21T22:40:47.543Z,83.80
2023-05-21T22:43:20.966Z,84.00
2023-05-21T22:45:54.185Z,84.30
2023-05-21T22:48:30.476Z,84.20
2023-05-21T22:51:04.515Z,84.50
2023-05-21T22:53:38.798Z,85.00
2023-05-21T22:56:12.223Z,84.70
2023-05-21T22:58:45.803Z,85.60
2023-05-21T23:01:19.237Z,85.50
2023-05-21T23:03:52.489Z,85.60
2023-05-21T23:06:25.799Z,85.80
2023-05-21T23:08:59.058Z,85.90
2023-05-21T23:11:32.591Z,85.80
2023-05-21T23:14:06.075Z,86.80
2023-05-21T23:16:43.741Z,86.90
2023-05-21T23:19:18.020Z,86.60
2023-05-21T23:21:52.760Z,86.90
2023-05-21T23:24:26.413Z,87.00
2023-05-21T23:27:02.792Z,87.40
2023-05-21T23:29:36.093Z,87.30
2023-05-21T23:32:10.570Z,87.70
2023-05-21T23:34:44.693Z,88.00
2023-05-21T23:37:18.329Z,88.30
2023-05-21T23:39:51.896Z,88.30
2023-05-21T23:42:25.582Z,88.80
2023-05-21T23:44:58.851Z,88.70
2023-05-21T23:47:32.117Z,88.60
2023-05-21T23:50:05.484Z,88.30
2023-05-21T23:52:38.910Z,90.00
2023-05-21T23:55:14.911Z,89.10
2023-05-21T23:57:48.572Z,89.40
